Terminal Aerodrome Forecast
Issued by NWS

Home | Current Version | Previous Version | Text Only | Print | Product List | Glossary On
Versions: 1 2 3 4 5 6 7 8 9 10 11 12 13 14 15 16 17 18 19 20 21 22 23 24 25 26
000
FTUS43 KDLH 221100
TAFHIB
TAF
KHIB 221120Z 2212/2312 VRB01KT 1/2SM FG OVC001
      TEMPO 2212/2213 4SM BR SCT003
     FM221300 27005KT P6SM FEW030=

USA.gov is the U.S. government's official web portal to all federal, state and local government web resources and services.